createdAt,value
2022-09-18T00:01:46.064Z,11.50
2022-09-18T00:04:14.993Z,11.50
2022-09-18T00:06:43.785Z,11.30
2022-09-18T00:09:14.670Z,11.30
2022-09-18T00:11:44.368Z,11.30
2022-09-18T00:14:16.118Z,11.30
2022-09-18T00:16:43.418Z,11.30
2022-09-18T00:19:10.873Z,11.30
2022-09-18T00:21:41.607Z,11.30
2022-09-18T00:24:08.677Z,11.30
2022-09-18T00:26:36.042Z,11.20
2022-09-18T00:29:04.159Z,11.30
2022-09-18T00:31:35.742Z,11.30
2022-09-18T00:34:07.857Z,11.30
2022-09-18T00:36:35.860Z,11.20
2022-09-18T00:39:03.455Z,11.20
2022-09-18T00:41:38.028Z,11.50
2022-09-18T00:44:38.185Z,11.60
2022-09-18T00:47:12.354Z,11.70
2022-09-18T00:49:57.364Z,11.70
2022-09-18T00:52:30.116Z,11.60
2022-09-18T00:55:04.300Z,11.50
2022-09-18T00:57:33.462Z,11.60
2022-09-18T01:00:02.697Z,11.50
2022-09-18T01:02:30.638Z,11.60
2022-09-18T01:04:57.569Z,11.70
2022-09-18T01:07:47.506Z,11.60
2022-09-18T01:10:43.714Z,11.50
2022-09-18T01:13:25.584Z,11.40
2022-09-18T01:16:16.212Z,11.30
2022-09-18T01:19:05.930Z,11.40
2022-09-18T01:22:03.819Z,11.50
2022-09-18T01:24:40.346Z,11.30
2022-09-18T01:27:11.216Z,11.20
2022-09-18T01:29:48.494Z,11.10
2022-09-18T01:32:25.708Z,11.10
2022-09-18T01:35:39.395Z,11.10
2022-09-18T01:38:09.277Z,11.10
2022-09-18T01:41:01.716Z,11.10
2022-09-18T01:43:30.939Z,11.10
2022-09-18T01:46:04.109Z,11.10
2022-09-18T01:48:41.129Z,11.10
2022-09-18T01:51:15.470Z,11.00
2022-09-18T01:53:47.037Z,11.00
2022-09-18T01:56:26.425Z,11.00
2022-09-18T01:58:57.690Z,11.00
2022-09-18T02:01:37.883Z,11.00
2022-09-18T02:04:13.041Z,11.10
2022-09-18T02:06:47.345Z,11.20
2022-09-18T02:09:16.689Z,11.20
2022-09-18T02:11:50.641Z,11.20
2022-09-18T02:14:40.826Z,11.00
2022-09-18T02:17:55.008Z,10.90
2022-09-18T02:20:31.055Z,10.90
2022-09-18T02:23:03.252Z,10.90
2022-09-18T02:25:49.671Z,10.90
2022-09-18T02:28:21.570Z,10.80
2022-09-18T02:30:51.312Z,10.70
2022-09-18T02:33:29.314Z,10.70
2022-09-18T02:36:29.097Z,10.80
2022-09-18T02:39:10.339Z,10.80
2022-09-18T02:42:12.319Z,10.80
2022-09-18T02:45:19.771Z,10.80
2022-09-18T02:48:21.598Z,10.70
2022-09-18T02:51:07.880Z,10.70
2022-09-18T02:54:11.236Z,10.60
2022-09-18T02:57:02.345Z,10.70
2022-09-18T02:59:45.237Z,10.70
2022-09-18T03:02:15.460Z,10.60
2022-09-18T03:04:42.539Z,10.60
2022-09-18T03:07:14.667Z,10.50
2022-09-18T03:09:43.474Z,10.40
2022-09-18T03:12:11.383Z,10.40
2022-09-18T03:14:42.845Z,10.50
2022-09-18T03:17:09.946Z,10.40
2022-09-18T03:19:36.903Z,10.50
2022-09-18T03:22:03.883Z,10.30
2022-09-18T03:24:34.460Z,10.40
2022-09-18T03:27:05.046Z,10.30
2022-09-18T03:29:31.939Z,10.40
2022-09-18T03:31:59.109Z,10.40
2022-09-18T03:34:26.487Z,10.30
2022-09-18T03:36:54.643Z,10.30
2022-09-18T03:39:21.644Z,10.30
2022-09-18T03:41:53.207Z,10.30
2022-09-18T03:44:22.750Z,10.30
2022-09-18T03:46:50.176Z,10.30
2022-09-18T03:49:20.859Z,10.30
2022-09-18T03:51:47.793Z,10.40
2022-09-18T03:54:14.853Z,10.40
2022-09-18T03:57:07.965Z,10.40
2022-09-18T03:59:55.113Z,10.50
2022-09-18T04:02:40.919Z,10.50
2022-09-18T04:05:26.125Z,10.60
2022-09-18T04:08:12.352Z,10.60
2022-09-18T04:11:00.598Z,10.50
2022-09-18T04:13:31.262Z,10.50
2022-09-18T04:16:04.079Z,10.50
2022-09-18T04:18:32.209Z,10.60
2022-09-18T04:21:01.268Z,10.60
2022-09-18T04:23:30.103Z,10.50
2022-09-18T04:25:57.792Z,10.40
2022-09-18T04:28:29.699Z,10.50
2022-09-18T04:30:57.623Z,10.50
2022-09-18T04:33:27.717Z,10.50
2022-09-18T04:35:54.911Z,10.40
2022-09-18T04:38:27.529Z,10.30
2022-09-18T04:40:58.280Z,10.40
2022-09-18T04:43:51.113Z,10.30
2022-09-18T04:46:25.170Z,10.30
2022-09-18T04:49:21.548Z,10.30
2022-09-18T04:56:15.136Z,10.20
2022-09-18T05:03:06.430Z,10.20
2022-09-18T05:05:36.188Z,10.20
2022-09-18T05:08:06.425Z,10.10
2022-09-18T05:10:34.414Z,10.10
2022-09-18T05:13:02.706Z,10.00
2022-09-18T05:15:29.637Z,10.10
2022-09-18T05:18:02.044Z,10.10
2022-09-18T05:20:30.758Z,10.20
2022-09-18T05:23:04.311Z,10.20
2022-09-18T05:25:31.565Z,10.10
2022-09-18T05:28:01.548Z,10.20
2022-09-18T05:30:33.897Z,10.20
2022-09-18T05:33:05.173Z,10.20
2022-09-18T05:35:34.441Z,10.20
2022-09-18T05:38:06.372Z,10.10
2022-09-18T05:40:34.978Z,10.10
2022-09-18T05:43:04.075Z,10.00
2022-09-18T05:45:33.628Z,10.10
2022-09-18T05:48:05.649Z,10.10
2022-09-18T05:50:36.302Z,10.20
2022-09-18T05:53:11.814Z,10.30
2022-09-18T05:56:02.365Z,10.40
2022-09-18T05:58:29.854Z,10.30
2022-09-18T06:00:59.328Z,10.40
2022-09-18T06:03:35.394Z,10.50
2022-09-18T06:06:02.546Z,10.40
2022-09-18T06:08:29.488Z,10.50
2022-09-18T06:11:01.090Z,10.40
2022-09-18T06:13:28.944Z,10.50
2022-09-18T06:15:57.427Z,10.50
2022-09-18T06:18:46.213Z,10.50
2022-09-18T06:21:15.974Z,10.50
2022-09-18T06:23:45.051Z,10.60
2022-09-18T06:26:36.014Z,10.60
2022-09-18T06:29:03.151Z,10.60
2022-09-18T06:31:38.128Z,10.60
2022-09-18T06:34:07.942Z,10.60
2022-09-18T06:36:34.875Z,10.60
2022-09-18T06:39:25.079Z,10.70
2022-09-18T06:41:58.814Z,10.70
2022-09-18T06:44:45.729Z,10.70
2022-09-18T06:47:14.395Z,10.60
2022-09-18T06:49:45.858Z,10.60
2022-09-18T06:52:13.034Z,10.60
2022-09-18T06:54:42.439Z,10.80
2022-09-18T06:57:09.521Z,10.90
2022-09-18T06:59:38.165Z,11.00
2022-09-18T07:02:18.624Z,11.10
2022-09-18T07:04:55.838Z,11.10
2022-09-18T07:07:22.773Z,11.20
2022-09-18T07:09:51.161Z,11.40
2022-09-18T07:12:26.978Z,11.60
2022-09-18T07:14:55.399Z,11.70
2022-09-18T07:17:26.530Z,11.70
2022-09-18T07:19:55.836Z,11.70
2022-09-18T07:22:29.879Z,11.70
2022-09-18T07:24:57.839Z,11.60
2022-09-18T07:27:24.689Z,11.80
2022-09-18T07:29:53.257Z,11.70
2022-09-18T07:32:24.364Z,11.70
2022-09-18T07:34:52.899Z,11.70
2022-09-18T07:37:26.781Z,11.60
2022-09-18T07:40:10.343Z,11.70
2022-09-18T07:43:08.106Z,11.80
2022-09-18T07:45:39.287Z,11.80
2022-09-18T07:48:07.527Z,11.80
2022-09-18T07:50:42.910Z,11.90
2022-09-18T07:53:11.656Z,12.10
2022-09-18T07:55:47.204Z,12.30
2022-09-18T07:58:14.862Z,12.30
2022-09-18T08:01:21.404Z,12.40
2022-09-18T08:03:52.913Z,12.30
2022-09-18T08:06:19.998Z,12.60
2022-09-18T08:09:07.653Z,12.80
2022-09-18T08:11:57.538Z,12.90
2022-09-18T08:14:44.683Z,13.10
2022-09-18T08:17:26.000Z,13.20
2022-09-18T08:20:11.091Z,13.10
2022-09-18T08:22:51.872Z,13.10
2022-09-18T08:25:23.205Z,13.10
2022-09-18T08:27:50.654Z,13.10
2022-09-18T08:30:30.367Z,13.30
2022-09-18T08:33:08.332Z,13.40
2022-09-18T08:35:36.013Z,13.70
2022-09-18T08:38:15.625Z,13.70
2022-09-18T08:41:52.038Z,13.80
2022-09-18T08:44:25.520Z,13.60
2022-09-18T08:47:00.862Z,13.60
2022-09-18T08:49:48.757Z,13.70
2022-09-18T08:52:25.895Z,13.60
2022-09-18T08:55:21.647Z,13.60
2022-09-18T08:58:11.369Z,13.80
2022-09-18T09:00:45.983Z,14.00
2022-09-18T09:03:34.433Z,14.20
2022-09-18T09:06:21.558Z,14.30
2022-09-18T09:09:02.131Z,14.20
2022-09-18T09:11:50.807Z,14.30
2022-09-18T09:14:57.610Z,14.30
2022-09-18T09:18:02.733Z,14.20
2022-09-18T09:20:56.211Z,14.10
2022-09-18T09:24:04.392Z,14.00
2022-09-18T09:27:24.432Z,14.00
2022-09-18T09:30:12.667Z,14.10
2022-09-18T09:33:18.688Z,14.30
2022-09-18T09:36:13.685Z,14.40
2022-09-18T09:38:52.088Z,14.40
2022-09-18T09:41:41.898Z,14.40
2022-09-18T09:44:27.862Z,14.40
2022-09-18T09:47:21.283Z,14.40
2022-09-18T09:49:55.387Z,14.50
2022-09-18T09:52:28.519Z,14.70
2022-09-18T09:55:19.289Z,14.90
2022-09-18T09:58:18.721Z,15.20
2022-09-18T10:01:04.495Z,15.40
2022-09-18T10:04:10.508Z,15.50
2022-09-18T10:07:24.556Z,15.30
2022-09-18T10:10:21.512Z,15.60
2022-09-18T10:12:57.154Z,15.80
2022-09-18T10:15:45.325Z,15.70
2022-09-18T10:18:27.609Z,15.90
2022-09-18T10:21:02.343Z,16.10
2022-09-18T10:23:41.070Z,16.40
2022-09-18T10:26:31.299Z,16.70
2022-09-18T10:29:06.926Z,16.50
2022-09-18T10:31:53.205Z,16.00
2022-09-18T10:34:41.799Z,15.90
2022-09-18T10:37:37.314Z,16.10
2022-09-18T10:40:34.009Z,16.50
2022-09-18T10:43:07.398Z,16.90
2022-09-18T10:45:41.800Z,16.90
2022-09-18T10:48:26.699Z,16.60
2022-09-18T10:51:05.069Z,16.90
2022-09-18T10:53:42.505Z,17.00
2022-09-18T10:56:25.945Z,17.00
2022-09-18T10:58:57.428Z,17.20
2022-09-18T11:01:25.712Z,16.80
2022-09-18T11:04:18.345Z,16.50
2022-09-18T11:06:47.268Z,17.00
2022-09-18T11:09:39.248Z,17.10
2022-09-18T11:12:23.297Z,17.10
2022-09-18T11:15:01.357Z,17.10
2022-09-18T11:17:32.270Z,17.30
2022-09-18T11:20:05.642Z,17.40
2022-09-18T11:23:15.137Z,17.70
2022-09-18T11:25:43.076Z,18.00
2022-09-18T11:28:29.643Z,18.00
2022-09-18T11:31:02.233Z,17.70
2022-09-18T11:33:37.588Z,17.60
2022-09-18T11:36:08.850Z,18.00
2022-09-18T11:38:47.274Z,18.10
2022-09-18T11:41:25.984Z,18.20
2022-09-18T11:44:14.925Z,18.20
2022-09-18T11:47:14.840Z,18.30
2022-09-18T11:49:49.979Z,18.20
2022-09-18T11:52:26.586Z,18.10
2022-09-18T11:55:10.521Z,18.70
2022-09-18T11:57:50.952Z,19.00
2022-09-18T12:00:30.299Z,19.10
2022-09-18T12:03:29.258Z,19.30
2022-09-18T12:06:06.491Z,19.30
2022-09-18T12:09:11.345Z,18.80
2022-09-18T12:12:02.585Z,18.30
2022-09-18T12:14:52.887Z,18.20
2022-09-18T12:17:37.381Z,17.90
2022-09-18T12:20:16.162Z,17.90
2022-09-18T12:22:56.454Z,17.90
2022-09-18T12:25:42.185Z,18.60
2022-09-18T12:28:34.040Z,19.00
2022-09-18T12:31:28.165Z,18.90
2022-09-18T12:34:16.777Z,18.60
2022-09-18T12:37:14.320Z,18.50
2022-09-18T12:40:13.341Z,18.30
2022-09-18T12:43:02.435Z,18.20
2022-09-18T12:45:44.659Z,17.90
2022-09-18T12:48:54.480Z,17.70
2022-09-18T12:51:43.183Z,17.10
2022-09-18T12:54:36.691Z,17.10
2022-09-18T12:57:21.954Z,17.20
2022-09-18T12:59:53.757Z,17.20
2022-09-18T13:02:36.058Z,17.20
2022-09-18T13:05:08.935Z,17.40
2022-09-18T13:07:59.759Z,17.30
2022-09-18T13:10:38.951Z,17.60
2022-09-18T13:13:40.180Z,18.40
2022-09-18T13:16:34.267Z,19.20
2022-09-18T13:19:10.054Z,18.80
2022-09-18T13:21:41.782Z,18.00
2022-09-18T13:24:16.651Z,17.50
2022-09-18T13:26:45.626Z,17.30
2022-09-18T13:29:51.269Z,17.60
2022-09-18T13:32:37.425Z,17.50
2022-09-18T13:35:19.689Z,17.60
2022-09-18T13:37:47.450Z,17.70
2022-09-18T13:40:35.415Z,17.70
2022-09-18T13:43:44.699Z,17.80
2022-09-18T13:46:39.607Z,17.60
2022-09-18T13:49:29.958Z,17.50
2022-09-18T13:52:33.105Z,17.50
2022-09-18T13:55:16.269Z,17.50
2022-09-18T13:57:44.826Z,17.60
2022-09-18T14:00:21.109Z,17.50
2022-09-18T14:03:11.582Z,17.50
2022-09-18T14:05:40.546Z,17.30
2022-09-18T14:08:14.258Z,17.10
2022-09-18T14:11:04.946Z,17.00
2022-09-18T14:13:41.774Z,17.00
2022-09-18T14:16:32.327Z,17.10
2022-09-18T14:19:07.643Z,17.10
2022-09-18T14:21:42.346Z,17.20
2022-09-18T14:24:38.942Z,17.20
2022-09-18T14:27:37.896Z,17.10
2022-09-18T14:30:24.898Z,17.10
2022-09-18T14:33:14.274Z,17.10
2022-09-18T14:36:00.425Z,16.90
2022-09-18T14:38:32.165Z,16.90
2022-09-18T14:41:11.705Z,16.70
2022-09-18T14:43:39.984Z,16.60
2022-09-18T14:46:22.156Z,16.60
2022-09-18T14:48:50.090Z,16.70
2022-09-18T14:51:25.732Z,16.80
2022-09-18T14:53:56.891Z,16.90
2022-09-18T14:56:34.050Z,17.00
2022-09-18T14:59:05.074Z,17.00
2022-09-18T15:01:34.345Z,17.00
2022-09-18T15:04:03.986Z,17.00
2022-09-18T15:06:45.618Z,17.00
2022-09-18T15:09:15.127Z,17.00
2022-09-18T15:12:02.265Z,17.00
2022-09-18T15:14:42.765Z,16.90
2022-09-18T15:17:23.939Z,16.80
2022-09-18T15:20:02.497Z,16.90
2022-09-18T15:22:31.906Z,17.00
2022-09-18T15:25:02.034Z,17.10
2022-09-18T15:27:31.584Z,17.20
2022-09-18T15:30:08.311Z,17.20
2022-09-18T15:32:40.440Z,17.30
2022-09-18T15:35:13.255Z,17.10
2022-09-18T15:37:41.088Z,17.00
2022-09-18T15:40:09.416Z,16.80
2022-09-18T15:42:40.229Z,16.80
2022-09-18T15:45:06.947Z,16.70
2022-09-18T15:47:37.813Z,16.60
2022-09-18T15:50:13.569Z,16.50
2022-09-18T15:52:53.980Z,16.40
2022-09-18T15:55:46.076Z,16.40
2022-09-18T15:58:37.167Z,16.30
2022-09-18T16:01:06.598Z,16.20
2022-09-18T16:03:40.726Z,16.10
2022-09-18T16:06:20.405Z,16.10
2022-09-18T16:08:52.381Z,16.10
2022-09-18T16:11:51.925Z,16.20
2022-09-18T16:14:39.569Z,16.10
2022-09-18T16:17:28.987Z,16.10
2022-09-18T16:20:01.894Z,16.10
2022-09-18T16:22:40.185Z,16.20
2022-09-18T16:25:18.287Z,16.10
2022-09-18T16:27:48.619Z,16.10
2022-09-18T16:30:15.905Z,16.10
2022-09-18T16:32:43.828Z,16.20
2022-09-18T16:35:17.386Z,16.20
2022-09-18T16:37:48.334Z,16.20
2022-09-18T16:40:25.380Z,16.00
2022-09-18T16:43:15.085Z,16.00
2022-09-18T16:45:46.854Z,16.00
2022-09-18T16:48:29.531Z,16.20
2022-09-18T16:50:56.516Z,16.10
2022-09-18T16:53:23.440Z,16.00
2022-09-18T16:55:56.284Z,15.90
2022-09-18T16:58:28.761Z,15.90
2022-09-18T17:00:56.802Z,15.90
2022-09-18T17:03:26.497Z,15.90
2022-09-18T17:05:55.373Z,16.00
2022-09-18T17:08:22.809Z,15.90
2022-09-18T17:10:51.014Z,16.00
2022-09-18T17:16:01.791Z,16.00
2022-09-18T17:18:30.975Z,16.00
2022-09-18T17:21:05.124Z,16.00
2022-09-18T17:23:34.974Z,15.90
2022-09-18T17:26:11.812Z,16.00
2022-09-18T17:28:43.167Z,16.00
2022-09-18T17:31:20.026Z,16.00
2022-09-18T17:36:29.239Z,16.00
2022-09-18T17:39:00.547Z,15.90
2022-09-18T17:41:35.437Z,15.60
2022-09-18T17:44:03.802Z,15.00
2022-09-18T17:46:30.756Z,14.40
2022-09-18T17:48:59.298Z,14.20
2022-09-18T17:51:28.711Z,14.00
2022-09-18T17:54:05.080Z,13.80
2022-09-18T17:56:33.333Z,13.80
2022-09-18T17:59:05.509Z,13.90
2022-09-18T18:01:38.347Z,13.90
2022-09-18T18:04:07.067Z,13.80
2022-09-18T18:07:05.063Z,13.80
2022-09-18T18:09:36.710Z,13.80
2022-09-18T18:12:06.028Z,13.80
2022-09-18T18:14:34.818Z,13.80
2022-09-18T18:17:02.783Z,13.90
2022-09-18T18:19:29.909Z,13.90
2022-09-18T18:21:57.874Z,13.90
2022-09-18T18:24:25.049Z,13.90
2022-09-18T18:26:55.583Z,14.00
2022-09-18T18:29:22.727Z,14.00
2022-09-18T18:31:51.613Z,13.90
2022-09-18T18:34:22.058Z,13.60
2022-09-18T18:36:50.409Z,13.20
2022-09-18T18:39:20.297Z,13.10
2022-09-18T18:41:47.458Z,12.90
2022-09-18T18:44:15.407Z,12.80
2022-09-18T18:46:43.078Z,12.80
2022-09-18T18:49:15.873Z,12.80
2022-09-18T18:51:45.996Z,12.80
2022-09-18T18:54:21.280Z,12.80
2022-09-18T18:56:49.213Z,12.80
2022-09-18T18:59:18.237Z,12.90
2022-09-18T19:01:45.558Z,12.90
2022-09-18T19:04:16.406Z,12.90
2022-09-18T19:06:44.611Z,13.00
2022-09-18T19:09:20.573Z,13.00
2022-09-18T19:11:49.674Z,13.00
2022-09-18T19:14:19.163Z,12.90
2022-09-18T19:16:47.103Z,12.90
2022-09-18T19:19:15.757Z,12.90
2022-09-18T19:21:43.052Z,13.00
2022-09-18T19:24:11.594Z,12.90
2022-09-18T19:26:40.904Z,12.80
2022-09-18T19:29:12.289Z,12.70
2022-09-18T19:31:41.215Z,12.70
2022-09-18T19:34:13.328Z,12.60
2022-09-18T19:36:40.684Z,12.60
2022-09-18T19:39:11.647Z,12.60
2022-09-18T19:41:59.049Z,12.60
2022-09-18T19:44:37.335Z,12.70
2022-09-18T19:47:21.675Z,12.70
2022-09-18T19:49:49.815Z,12.70
2022-09-18T19:52:23.002Z,12.70
2022-09-18T19:54:54.482Z,12.80
2022-09-18T19:57:23.715Z,12.80
2022-09-18T19:59:55.215Z,12.80
2022-09-18T20:02:24.134Z,13.00
2022-09-18T20:04:52.436Z,13.00
2022-09-18T20:07:20.691Z,13.00
2022-09-18T20:09:47.607Z,13.00
2022-09-18T20:12:14.647Z,12.60
2022-09-18T20:14:42.808Z,12.80
2022-09-18T20:17:09.972Z,12.80
2022-09-18T20:19:37.140Z,12.80
2022-09-18T20:22:05.033Z,12.80
2022-09-18T20:24:33.245Z,12.70
2022-09-18T20:27:00.884Z,12.70
2022-09-18T20:29:28.913Z,12.70
2022-09-18T20:31:56.258Z,12.60
2022-09-18T20:34:25.063Z,12.60
2022-09-18T20:36:52.607Z,12.60
2022-09-18T20:39:21.670Z,12.60
2022-09-18T20:41:50.716Z,12.60
2022-09-18T20:44:19.032Z,12.60
2022-09-18T20:46:46.041Z,12.60
2022-09-18T20:49:17.626Z,12.60
2022-09-18T20:51:44.855Z,12.60
2022-09-18T20:54:14.408Z,12.60
2022-09-18T20:56:44.375Z,12.50
2022-09-18T20:59:13.145Z,12.50
2022-09-18T21:01:42.812Z,12.30
2022-09-18T21:04:17.398Z,12.20
2022-09-18T21:06:56.191Z,12.10
2022-09-18T21:09:27.433Z,12.10
2022-09-18T21:11:56.568Z,12.20
2022-09-18T21:14:25.517Z,12.20
2022-09-18T21:16:52.926Z,12.20
2022-09-18T21:19:20.074Z,12.10
2022-09-18T21:21:48.192Z,12.00
2022-09-18T21:24:17.333Z,12.00
2022-09-18T21:26:46.734Z,11.90
2022-09-18T21:29:17.982Z,11.90
2022-09-18T21:31:50.694Z,12.00
2022-09-18T21:34:24.243Z,12.00
2022-09-18T21:36:53.774Z,12.10
2022-09-18T21:39:20.550Z,12.10
2022-09-18T21:41:47.593Z,12.10
2022-09-18T21:44:23.706Z,12.10
2022-09-18T21:46:52.146Z,12.00
2022-09-18T21:49:19.455Z,12.00
2022-09-18T21:51:46.859Z,11.90
2022-09-18T21:54:18.033Z,11.90
2022-09-18T21:56:51.254Z,12.00
2022-09-18T21:59:20.772Z,11.80
2022-09-18T22:01:50.165Z,11.70
2022-09-18T22:04:17.424Z,11.80
2022-09-18T22:06:46.648Z,11.90
2022-09-18T22:09:19.656Z,11.90
2022-09-18T22:11:47.798Z,11.80
2022-09-18T22:14:22.814Z,11.90
2022-09-18T22:16:50.216Z,12.00
2022-09-18T22:19:17.529Z,12.00
2022-09-18T22:21:47.399Z,12.00
2022-09-18T22:24:19.139Z,12.00
2022-09-18T22:26:50.453Z,11.90
2022-09-18T22:29:44.446Z,12.00
2022-09-18T22:32:11.337Z,12.00
2022-09-18T22:34:38.233Z,11.80
2022-09-18T22:37:05.375Z,11.80
2022-09-18T22:39:32.280Z,11.80
2022-09-18T22:42:00.835Z,11.70
2022-09-18T22:44:27.682Z,11.80
2022-09-18T22:46:54.735Z,11.80
2022-09-18T22:50:20.220Z,11.90
2022-09-18T22:52:48.619Z,11.90
2022-09-18T22:55:16.559Z,11.70
2022-09-18T22:57:44.507Z,11.80
2022-09-18T23:00:16.306Z,11.80
2022-09-18T23:02:43.504Z,11.90
2022-09-18T23:05:11.437Z,11.70
2022-09-18T23:07:39.397Z,11.90
2022-09-18T23:10:07.916Z,11.90
2022-09-18T23:12:37.173Z,11.90
2022-09-18T23:15:07.982Z,11.90
2022-09-18T23:17:35.208Z,11.90
2022-09-18T23:20:03.474Z,12.00
2022-09-18T23:22:31.344Z,12.00
2022-09-18T23:24:59.194Z,11.90
2022-09-18T23:27:26.117Z,11.80
2022-09-18T23:29:53.001Z,11.80
2022-09-18T23:32:19.983Z,11.80
2022-09-18T23:34:46.830Z,11.80
2022-09-18T23:37:16.749Z,11.80
2022-09-18T23:39:44.649Z,11.90
2022-09-18T23:43:17.638Z,11.90
2022-09-18T23:45:45.509Z,11.90
2022-09-18T23:48:13.331Z,11.80
2022-09-18T23:50:58.481Z,11.70
2022-09-18T23:57:28.586Z,11.50
2022-09-18T23:59:58.693Z,11.40
